Time;durP1;ratioP1;P1;durP2;ratioP2;P2;SDS_P1;SDS_P2;PMS_P1;PMS_P2;Temp;Humidity;BMP_temperature;BMP_pressure;BME280_temperature;BME280_humidity;BME280_pressure;Samples;Min_cycle;Max_cycle;Signal;HPM_P1;HPM_P2
2022/11/01 00:00:06;;;;;;;9.60;2.07;;;13.20;98.50;;;;;;5075597;28;20187;-70
2022/11/01 00:02:32;;;;;;;0.50;0.50;;;13.20;98.80;;;;;;5075996;28;20586;-71
2022/11/01 00:04:58;;;;;;;0.87;0.87;;;13.20;98.70;;;;;;5076156;28;20406;-69
2022/11/01 00:07:23;;;;;;;0.63;0.63;;;13.20;98.70;;;;;;5075895;28;20165;-71
2022/11/01 00:09:49;;;;;;;11.00;1.23;;;13.10;99.00;;;;;;5075515;28;20194;-71
2022/11/01 00:12:14;;;;;;;0.40;0.40;;;13.10;99.00;;;;;;5075597;28;20636;-69
2022/11/01 00:14:40;;;;;;;0.63;0.63;;;13.00;98.90;;;;;;5075272;28;20176;-69
2022/11/01 00:17:06;;;;;;;0.87;0.60;;;13.00;99.40;;;;;;5075378;28;20203;-69
2022/11/01 00:19:31;;;;;;;1.93;0.60;;;13.00;99.90;;;;;;5075241;28;20195;-71
2022/11/01 00:21:57;;;;;;;0.67;0.67;;;13.00;98.80;;;;;;5075423;28;20537;-71
2022/11/01 00:24:23;;;;;;;0.60;0.60;;;13.00;98.70;;;;;;5075454;28;20166;-71
2022/11/01 00:26:49;;;;;;;3.40;0.70;;;13.10;98.30;;;;;;5075755;28;20550;-68
2022/11/01 00:29:15;;;;;;;0.87;0.83;;;13.20;98.20;;;;;;5073894;28;20509;-70
2022/11/01 00:31:41;;;;;;;0.40;0.40;;;13.20;98.20;;;;;;5073952;28;20681;-70
2022/11/01 00:34:06;;;;;;;3.43;1.63;;;13.20;98.30;;;;;;5075157;28;20437;-70
2022/11/01 00:36:34;;;;;;;0.60;0.53;;;13.20;98.40;;;;;;5075130;28;20197;-69
2022/11/01 00:38:59;;;;;;;0.63;0.63;;;13.20;98.50;;;;;;5074920;28;20225;-69
2022/11/01 00:41:25;;;;;;;1.33;1.27;;;13.20;98.30;;;;;;5074876;28;20425;-70
2022/11/01 00:43:51;;;;;;;0.30;0.30;;;13.20;98.20;;;;;;5075090;28;20466;-68
2022/11/01 00:46:17;;;;;;;0.50;0.50;;;13.20;97.90;;;;;;5075082;28;20182;-70
2022/11/01 00:48:43;;;;;;;1.20;1.13;;;13.20;97.90;;;;;;5075045;28;20883;-70
2022/11/01 00:51:09;;;;;;;0.73;0.73;;;13.20;97.90;;;;;;5074598;28;20514;-69
2022/11/01 00:53:35;;;;;;;0.70;0.70;;;13.30;97.90;;;;;;5074859;28;20438;-71
2022/11/01 00:56:03;;;;;;;0.40;0.40;;;13.30;97.80;;;;;;5074726;28;20441;-70
2022/11/01 00:58:28;;;;;;;0.50;0.50;;;13.40;97.90;;;;;;5074806;28;20176;-69
2022/11/01 01:00:55;;;;;;;0.40;0.40;;;13.40;98.10;;;;;;5074317;28;20417;-69
2022/11/01 01:03:21;;;;;;;0.40;0.40;;;13.40;98.20;;;;;;5074796;28;20237;-71
2022/11/01 01:05:48;;;;;;;1.63;1.53;;;13.40;98.30;;;;;;5074579;28;20403;-71
2022/11/01 01:08:13;;;;;;;0.40;0.40;;;13.40;98.40;;;;;;5074618;28;20170;-72
2022/11/01 01:10:39;;;;;;;0.40;0.40;;;13.40;98.10;;;;;;5074216;28;20528;-70
2022/11/01 01:13:05;;;;;;;0.40;0.40;;;13.40;98.00;;;;;;5074297;28;20197;-71
2022/11/01 01:15:30;;;;;;;3.50;1.73;;;13.40;98.10;;;;;;5074282;28;20595;-72
2022/11/01 01:17:56;;;;;;;1.17;1.17;;;13.40;97.90;;;;;;5074357;28;20591;-72
2022/11/01 01:20:22;;;;;;;0.73;0.70;;;13.40;97.80;;;;;;5074141;28;20654;-72
2022/11/01 01:22:47;;;;;;;1.03;0.70;;;13.50;97.90;;;;;;5074310;28;20203;-70
2022/11/01 01:25:13;;;;;;;0.70;0.70;;;13.50;98.00;;;;;;5074228;28;20173;-68
2022/11/01 01:27:39;;;;;;;0.30;0.30;;;13.50;98.20;;;;;;5074257;28;20180;-70
2022/11/01 01:30:06;;;;;;;0.70;0.70;;;13.40;98.40;;;;;;5073858;28;20520;-72
2022/11/01 01:32:32;;;;;;;1.80;1.17;;;13.50;98.40;;;;;;5074361;28;20168;-69
2022/11/01 01:34:58;;;;;;;0.60;0.60;;;13.50;98.20;;;;;;5073826;28;20416;-68
2022/11/01 01:37:24;;;;;;;0.60;0.60;;;13.50;97.80;;;;;;5074052;28;20459;-69
2022/11/01 01:39:50;;;;;;;1.87;1.47;;;13.50;98.00;;;;;;5073726;28;20238;-71
2022/11/01 01:42:25;;;;;;;0.73;0.70;;;13.40;98.30;;;;;;5072196;28;20213;-69
2022/11/01 01:44:54;;;;;;;0.70;0.50;;;13.50;98.20;;;;;;5074191;28;20945;-70
2022/11/01 01:47:22;;;;;;;0.30;0.30;;;13.50;97.80;;;;;;5073821;28;20886;-70
2022/11/01 01:49:50;;;;;;;0.50;0.47;;;13.60;98.10;;;;;;5073639;28;20434;-69
2022/11/01 01:52:17;;;;;;;0.50;0.50;;;13.60;97.90;;;;;;5073811;28;20509;-70
2022/11/01 01:54:43;;;;;;;0.60;0.60;;;13.60;97.80;;;;;;5073884;28;20408;-68
2022/11/01 01:57:10;;;;;;;0.50;0.50;;;13.70;97.60;;;;;;5073630;28;20785;-69
2022/11/01 01:59:36;;;;;;;0.40;0.40;;;13.80;99.90;;;;;;5073413;28;20430;-71
2022/11/01 02:02:02;;;;;;;0.80;0.80;;;13.60;97.50;;;;;;5072349;28;20808;-69
2022/11/01 02:04:38;;;;;;;1.10;0.70;;;13.70;98.00;;;;;;5073711;28;20762;-70
2022/11/01 02:07:04;;;;;;;0.37;0.37;;;13.70;98.10;;;;;;5073826;28;20493;-72
2022/11/01 02:09:32;;;;;;;0.60;0.60;;;13.60;98.10;;;;;;5073341;28;20486;-69
2022/11/01 02:11:57;;;;;;;3.13;0.60;;;13.60;98.30;;;;;;5073674;28;20176;-71
2022/11/01 02:14:24;;;;;;;0.53;0.53;;;13.60;97.10;;;;;;5073501;28;20455;-70
2022/11/01 02:17:02;;;;;;;0.93;0.93;;;13.70;96.90;;;;;;5073311;28;20201;-72
2022/11/01 02:19:55;;;;;;;0.60;0.60;;;14.40;99.90;;;;;;5073337;28;20403;-71
2022/11/01 02:22:49;;;;;;;4.33;2.10;;;14.20;95.60;;;;;;5073400;28;20391;-71
2022/11/01 02:25:44;;;;;;;0.93;0.93;;;14.40;95.50;;;;;;5073550;28;21332;-70
2022/11/01 02:28:25;;;;;;;1.27;1.27;;;14.60;95.50;;;;;;5073459;28;20506;-69
2022/11/01 02:31:15;;;;;;;9.03;1.77;;;14.70;95.60;;;;;;5073007;28;20419;-70
2022/11/01 02:33:47;;;;;;;0.70;0.70;;;14.80;96.00;;;;;;5072115;28;20913;-69
2022/11/01 02:36:32;;;;;;;1.17;1.17;;;14.80;96.30;;;;;;5072933;28;20447;-69
2022/11/01 02:39:08;;;;;;;0.40;0.40;;;14.90;96.50;;;;;;5073515;28;20798;-68
2022/11/01 02:41:49;;;;;;;1.43;1.33;;;14.90;96.50;;;;;;5073467;28;20454;-70
2022/11/01 02:44:21;;;;;;;1.13;1.13;;;14.90;96.90;;;;;;5073248;28;20484;-72
2022/11/01 02:47:00;;;;;;;0.70;0.70;;;14.80;97.10;;;;;;5073349;28;20415;-69
2022/11/01 02:49:41;;;;;;;0.90;0.90;;;15.00;99.90;;;;;;5073140;28;20454;-69
2022/11/01 02:52:11;;;;;;;0.40;0.40;;;14.80;97.30;;;;;;5073157;28;20399;-70
2022/11/01 02:54:59;;;;;;;0.40;0.40;;;14.80;97.40;;;;;;5075237;28;20418;-69
2022/11/01 02:57:25;;;;;;;0.50;0.50;;;14.80;97.60;;;;;;5077182;28;20407;-70
2022/11/01 02:59:50;;;;;;;0.30;0.30;;;14.90;97.70;;;;;;5076686;28;20534;-71
2022/11/01 03:02:38;;;;;;;0.60;0.60;;;14.80;97.80;;;;;;5076913;28;20251;-69
2022/11/01 03:05:11;;;;;;;0.40;0.40;;;14.70;98.10;;;;;;5077124;28;20500;-69
2022/11/01 03:07:40;;;;;;;0.30;0.30;;;14.80;98.30;;;;;;5077022;28;20402;-72
2022/11/01 03:10:07;;;;;;;1.37;1.27;;;14.80;98.40;;;;;;5076493;28;20442;-70
2022/11/01 03:12:39;;;;;;;0.63;0.63;;;14.80;98.50;;;;;;5076647;28;20403;-72
2022/11/01 03:15:19;;;;;;;1.33;1.33;;;14.80;98.50;;;;;;5076954;28;20728;-69
2022/11/01 03:18:23;;;;;;;0.30;0.30;;;14.80;98.60;;;;;;5076783;28;20402;-69
2022/11/01 03:21:00;;;;;;;0.70;0.57;;;14.70;99.00;;;;;;5071325;28;20439;-70
2022/11/01 03:23:32;;;;;;;2.00;0.60;;;14.70;99.10;;;;;;5076635;28;20407;-70
2022/11/01 03:26:00;;;;;;;0.30;0.30;;;14.70;99.20;;;;;;5076490;28;20425;-72
2022/11/01 03:28:38;;;;;;;0.30;0.30;;;14.70;99.30;;;;;;5076590;28;20512;-72
2022/11/01 03:31:11;;;;;;;0.30;0.30;;;14.70;99.30;;;;;;5076190;28;20503;-69
2022/11/01 03:33:45;;;;;;;1.70;0.47;;;14.70;99.30;;;;;;5076264;28;20449;-70
2022/11/01 03:36:13;;;;;;;0.30;0.30;;;14.70;99.30;;;;;;5076419;28;20446;-71
2022/11/01 03:38:43;;;;;;;0.40;0.40;;;14.70;99.40;;;;;;5076471;28;20502;-69
2022/11/01 03:41:14;;;;;;;2.53;1.20;;;14.70;99.60;;;;;;5076002;28;20564;-69
2022/11/01 03:43:40;;;;;;;0.40;0.40;;;14.70;99.60;;;;;;5076797;28;20395;-70
2022/11/01 03:46:07;;;;;;;0.30;0.30;;;14.70;99.50;;;;;;5076150;28;20404;-70
2022/11/01 03:48:37;;;;;;;0.30;0.30;;;14.70;99.50;;;;;;5076126;28;20408;-68
2022/11/01 03:51:02;;;;;;;0.50;0.50;;;14.70;99.80;;;;;;5075838;28;20929;-71
2022/11/01 03:53:28;;;;;;;0.60;0.60;;;14.60;99.90;;;;;;5076130;28;20485;-71
2022/11/01 03:55:54;;;;;;;0.83;0.83;;;;;;;;;;5075842;28;20661;-69
2022/11/01 03:58:20;;;;;;;1.37;1.37;;;14.70;99.90;;;;;;5075798;28;20176;-69
2022/11/01 04:00:46;;;;;;;0.67;0.60;;;14.70;99.90;;;;;;5075600;28;20426;-70
2022/11/01 04:03:12;;;;;;;1.27;1.17;;;14.80;99.90;;;;;;5076019;28;20184;-70
2022/11/01 04:05:40;;;;;;;0.73;0.70;;;14.80;99.90;;;;;;5075662;28;20858;-69
2022/11/01 04:08:07;;;;;;;0.70;0.60;;;14.80;99.90;;;;;;5075833;28;20400;-69
2022/11/01 04:10:33;;;;;;;2.67;1.10;;;14.70;99.90;;;;;;5075381;28;20442;-70
2022/11/01 04:12:59;;;;;;;1.00;1.00;;;14.80;99.90;;;;;;5075841;28;20742;-70
2022/11/01 04:21:04;;;;;;;0.30;0.30;;;14.70;99.90;;;;;;5075512;28;20486;-72
2022/11/01 04:23:30;;;;;;;0.30;0.30;;;14.70;99.90;;;;;;5075421;28;20396;-70
2022/11/01 04:25:56;;;;;;;0.67;0.67;;;14.70;99.90;;;;;;5075182;28;20419;-69
2022/11/01 04:28:22;;;;;;;0.50;0.50;;;14.70;99.90;;;;;;5075416;28;20646;-70
2022/11/01 04:30:48;;;;;;;0.40;0.40;;;14.60;99.90;;;;;;5075094;28;20205;-69
2022/11/01 04:33:14;;;;;;;0.70;0.70;;;14.50;99.90;;;;;;5075117;28;20408;-71
2022/11/01 04:35:39;;;;;;;0.30;0.30;;;14.40;99.90;;;;;;5075075;28;20193;-70
2022/11/01 04:38:05;;;;;;;0.50;0.50;;;14.40;99.90;;;;;;5075309;28;20400;-69
2022/11/01 04:40:32;;;;;;;4.93;0.73;;;14.20;99.90;;;;;;5074765;28;20187;-69
2022/11/01 04:42:59;;;;;;;0.60;0.60;;;14.10;99.90;;;;;;5075026;28;20168;-71
2022/11/01 04:45:24;;;;;;;0.40;0.40;;;14.20;99.90;;;;;;5075114;28;20415;-70
2022/11/01 04:48:19;;;;;;;0.67;0.67;;;14.20;99.90;;;;;;5075019;28;20408;-69
2022/11/01 04:50:46;;;;;;;0.40;0.40;;;14.20;99.90;;;;;;5053519;28;20606;-71
2022/11/01 04:53:12;;;;;;;0.30;0.30;;;14.20;99.90;;;;;;5075171;28;20407;-69
2022/11/01 04:55:38;;;;;;;0.40;0.40;;;14.10;99.90;;;;;;5074683;28;20497;-69
2022/11/01 04:58:05;;;;;;;0.90;0.50;;;14.10;99.90;;;;;;5074845;28;20431;-72
2022/11/01 05:00:34;;;;;;;0.73;0.73;;;14.20;99.90;;;;;;5074551;28;20430;-71
2022/11/01 05:03:05;;;;;;;1.80;0.97;;;14.10;99.90;;;;;;5074515;28;20414;-71
2022/11/01 05:05:31;;;;;;;2.97;0.60;;;14.20;99.90;;;;;;5074763;28;20480;-70
2022/11/01 05:08:04;;;;;;;0.40;0.40;;;14.20;99.90;;;;;;5074616;28;20400;-70
2022/11/01 05:10:31;;;;;;;0.40;0.40;;;14.20;99.90;;;;;;5074250;28;20422;-68
2022/11/01 05:12:56;;;;;;;0.93;0.93;;;14.20;99.90;;;;;;5074369;28;20507;-72
2022/11/01 05:15:22;;;;;;;0.30;0.30;;;14.20;99.90;;;;;;5074319;28;20530;-70
2022/11/01 05:17:48;;;;;;;0.30;0.30;;;14.20;99.90;;;;;;5073775;28;20170;-69
2022/11/01 05:20:14;;;;;;;0.40;0.40;;;14.10;99.90;;;;;;5074154;28;20561;-72
2022/11/01 05:22:39;;;;;;;0.40;0.40;;;14.00;99.90;;;;;;5074237;28;20208;-70
2022/11/01 05:25:08;;;;;;;1.80;1.23;;;14.00;99.90;;;;;;5074207;28;20219;-70
2022/11/01 05:27:34;;;;;;;0.30;0.30;;;14.00;99.90;;;;;;5074147;28;20156;-71
2022/11/01 05:30:00;;;;;;;0.30;0.30;;;13.90;99.90;;;;;;5073944;28;20416;-71
2022/11/01 05:32:26;;;;;;;0.40;0.40;;;;;;;;;;5074018;28;20418;-70
2022/11/01 05:34:52;;;;;;;0.37;0.37;;;13.90;99.90;;;;;;5074081;28;20395;-70
2022/11/01 05:37:18;;;;;;;0.30;0.30;;;14.00;99.90;;;;;;5074013;28;20528;-68
2022/11/01 05:39:43;;;;;;;0.67;0.67;;;14.00;99.90;;;;;;5073785;28;20189;-69
2022/11/01 05:42:09;;;;;;;1.33;0.40;;;14.10;99.90;;;;;;5074070;28;20560;-72
2022/11/01 05:44:35;;;;;;;0.30;0.30;;;14.10;99.90;;;;;;5073732;28;20407;-71
2022/11/01 05:47:04;;;;;;;0.40;0.40;;;14.00;99.90;;;;;;5074208;28;20634;-70
2022/11/01 05:49:31;;;;;;;0.40;0.40;;;14.00;99.90;;;;;;5073815;28;20277;-70
2022/11/01 05:51:56;;;;;;;0.40;0.40;;;13.80;99.90;;;;;;5073802;28;20435;-70
2022/11/01 05:54:22;;;;;;;1.77;1.00;;;13.70;99.90;;;;;;5073859;28;20767;-69
2022/11/01 05:56:48;;;;;;;0.30;0.30;;;13.70;99.90;;;;;;5073627;28;20201;-72
2022/11/01 05:59:14;;;;;;;0.40;0.40;;;13.70;99.90;;;;;;5073842;28;20631;-71
2022/11/01 06:01:40;;;;;;;0.67;0.40;;;13.80;99.90;;;;;;5073727;28;20199;-68
2022/11/01 06:04:05;;;;;;;0.80;0.80;;;13.70;99.90;;;;;;5073840;28;20172;-71
2022/11/01 06:06:31;;;;;;;0.40;0.40;;;13.60;99.90;;;;;;5073088;28;20902;-68
2022/11/01 06:08:58;;;;;;;0.60;0.60;;;13.60;99.90;;;;;;5067981;28;20172;-69
2022/11/01 06:11:25;;;;;;;2.10;1.40;;;13.60;99.90;;;;;;5073631;28;20442;-70
2022/11/01 06:13:58;;;;;;;0.60;0.60;;;13.50;99.90;;;;;;5072795;28;20415;-72
2022/11/01 06:16:27;;;;;;;1.70;0.60;;;13.50;99.90;;;;;;5072261;28;20824;-71
2022/11/01 06:18:53;;;;;;;0.30;0.30;;;13.40;99.90;;;;;;5073799;28;20392;-67
2022/11/01 06:21:21;;;;;;;0.60;0.60;;;13.30;99.90;;;;;;5073348;28;20426;-70
2022/11/01 06:23:49;;;;;;;0.40;0.40;;;13.40;99.90;;;;;;5073478;28;20511;-70
2022/11/01 06:26:18;;;;;;;0.40;0.40;;;13.40;99.90;;;;;;5073392;28;20423;-69
2022/11/01 06:28:44;;;;;;;0.30;0.30;;;13.50;99.90;;;;;;5075271;28;20399;-71
2022/11/01 06:31:10;;;;;;;0.60;0.60;;;13.40;99.90;;;;;;5077650;28;20912;-71
2022/11/01 06:33:36;;;;;;;0.40;0.40;;;13.40;99.90;;;;;;5076353;28;20443;-71
2022/11/01 06:36:02;;;;;;;0.60;0.60;;;13.50;99.90;;;;;;5078037;28;20507;-70
2022/11/01 06:38:27;;;;;;;0.40;0.40;;;13.50;99.90;;;;;;5077481;28;20409;-69
2022/11/01 06:40:53;;;;;;;0.40;0.40;;;13.60;99.90;;;;;;5077344;28;20805;-72
2022/11/01 06:43:19;;;;;;;0.60;0.60;;;13.60;99.90;;;;;;5077641;28;20179;-71
2022/11/01 06:45:44;;;;;;;0.50;0.50;;;13.70;99.90;;;;;;5077711;28;20251;-70
2022/11/01 06:48:10;;;;;;;0.30;0.30;;;13.60;99.90;;;;;;5077879;28;20553;-70
2022/11/01 06:50:36;;;;;;;0.30;0.30;;;13.60;99.90;;;;;;5077029;28;20570;-69
2022/11/01 06:53:01;;;;;;;0.37;0.37;;;13.60;99.90;;;;;;5077259;28;20249;-69
2022/11/01 06:55:28;;;;;;;0.30;0.30;;;13.50;99.90;;;;;;5077199;28;20644;-71
2022/11/01 06:57:59;;;;;;;0.30;0.30;;;13.60;99.90;;;;;;5077463;28;20169;-71
2022/11/01 07:00:27;;;;;;;0.30;0.30;;;13.50;99.90;;;;;;5077179;28;20457;-71
2022/11/01 07:03:04;;;;;;;0.40;0.40;;;13.40;99.90;;;;;;5077669;28;20396;-68
2022/11/01 07:05:32;;;;;;;0.40;0.40;;;13.50;99.90;;;;;;5077397;28;20751;-71
2022/11/01 07:07:59;;;;;;;0.30;0.30;;;13.50;99.90;;;;;;5077035;28;20948;-70
2022/11/01 07:10:25;;;;;;;0.40;0.40;;;13.50;99.90;;;;;;5077047;28;20509;-67
2022/11/01 07:12:55;;;;;;;0.30;0.30;;;13.60;99.90;;;;;;5077364;28;20732;-69
2022/11/01 07:15:21;;;;;;;0.40;0.40;;;13.60;99.90;;;;;;5077298;28;20494;-71
2022/11/01 07:17:47;;;;;;;0.30;0.30;;;;;;;;;;5077300;28;20477;-70
2022/11/01 07:20:12;;;;;;;0.30;0.30;;;13.70;99.90;;;;;;5076622;28;20565;-70
2022/11/01 07:22:38;;;;;;;0.40;0.40;;;;;;;;;;5076933;28;20495;-70
2022/11/01 07:25:04;;;;;;;0.30;0.30;;;13.70;99.90;;;;;;5076716;28;20248;-70
2022/11/01 07:27:30;;;;;;;0.40;0.40;;;13.70;99.90;;;;;;5077061;28;20433;-70
2022/11/01 07:29:56;;;;;;;0.40;0.40;;;13.80;99.90;;;;;;5076408;28;20829;-71
2022/11/01 07:32:21;;;;;;;0.70;0.50;;;13.80;99.90;;;;;;5077086;28;20199;-69
2022/11/01 07:34:47;;;;;;;0.30;0.30;;;;;;;;;;5076463;28;20248;-72
2022/11/01 07:37:13;;;;;;;0.60;0.47;;;13.90;99.90;;;;;;5076284;28;20232;-70
2022/11/01 07:39:38;;;;;;;0.30;0.30;;;14.00;99.90;;;;;;5075531;28;20777;-69
2022/11/01 07:42:04;;;;;;;0.57;0.57;;;14.00;99.90;;;;;;5076555;28;20170;-69
2022/11/01 07:44:30;;;;;;;1.30;0.80;;;14.00;99.90;;;;;;5076763;28;20200;-71
2022/11/01 07:46:55;;;;;;;0.60;0.60;;;13.90;99.90;;;;;;5076675;28;20181;-72
2022/11/01 07:49:21;;;;;;;1.13;0.40;;;13.90;99.90;;;;;;5076083;28;20177;-71
2022/11/01 07:51:47;;;;;;;0.97;0.97;;;13.90;99.90;;;;;;5076211;28;20212;-71
2022/11/01 07:54:12;;;;;;;0.30;0.30;;;14.00;99.90;;;;;;5076331;28;20299;-70
2022/11/01 07:56:38;;;;;;;0.40;0.40;;;14.10;99.90;;;;;;5076342;28;20197;-70
2022/11/01 07:59:03;;;;;;;0.40;0.40;;;14.10;99.90;;;;;;5076270;28;20166;-68
2022/11/01 08:01:29;;;;;;;0.30;0.30;;;14.10;99.90;;;;;;5076469;28;20690;-71
2022/11/01 08:03:55;;;;;;;0.43;0.43;;;14.20;99.90;;;;;;5076199;28;20167;-72
2022/11/01 08:06:20;;;;;;;0.40;0.40;;;14.20;99.90;;;;;;5075724;28;20169;-70
2022/11/01 08:08:46;;;;;;;0.30;0.30;;;14.10;99.90;;;;;;5076049;28;20575;-71
2022/11/01 08:11:12;;;;;;;0.50;0.50;;;14.10;99.90;;;;;;5076115;28;20197;-71
2022/11/01 08:13:37;;;;;;;0.70;0.70;;;14.00;99.90;;;;;;5076214;28;20227;-71
2022/11/01 08:16:03;;;;;;;0.40;0.40;;;13.90;99.90;;;;;;5076211;28;20200;-73
2022/11/01 08:18:29;;;;;;;0.30;0.30;;;13.80;99.90;;;;;;5075848;28;20238;-71
2022/11/01 08:20:56;;;;;;;1.23;0.57;;;13.80;99.90;;;;;;5075537;28;20464;-68
2022/11/01 08:23:22;;;;;;;0.40;0.40;;;13.80;99.90;;;;;;5075786;28;20516;-72
2022/11/01 08:25:48;;;;;;;2.47;1.03;;;13.90;99.90;;;;;;5075413;28;20419;-71
2022/11/01 08:28:19;;;;;;;0.47;0.47;;;13.90;99.90;;;;;;5075895;28;20195;-71
2022/11/01 08:30:47;;;;;;;0.93;0.40;;;14.10;99.90;;;;;;5075175;28;20808;-72
2022/11/01 08:33:13;;;;;;;0.40;0.40;;;14.30;99.90;;;;;;5075401;28;20404;-72
2022/11/01 08:35:38;;;;;;;0.40;0.40;;;14.50;99.90;;;;;;5075442;28;20447;-69
2022/11/01 08:38:05;;;;;;;0.30;0.30;;;14.70;99.90;;;;;;5075593;28;20457;-71
2022/11/01 08:40:32;;;;;;;0.40;0.40;;;14.90;99.90;;;;;;5075455;28;20412;-69
2022/11/01 08:42:58;;;;;;;6.10;1.03;;;15.10;99.90;;;;;;5075774;28;20401;-70
2022/11/01 08:45:24;;;;;;;0.30;0.30;;;15.20;99.90;;;;;;5075022;28;20414;-70
2022/11/01 08:47:58;;;;;;;0.60;0.50;;;15.40;99.90;;;;;;5075337;28;20395;-71
2022/11/01 08:50:24;;;;;;;0.77;0.47;;;15.50;99.90;;;;;;5075061;28;20805;-72
2022/11/01 08:52:50;;;;;;;0.67;0.67;;;15.80;99.90;;;;;;5074357;28;20494;-71
2022/11/01 08:55:15;;;;;;;0.97;0.97;;;16.40;99.90;;;;;;5075314;28;20492;-71
2022/11/01 08:57:41;;;;;;;0.50;0.50;;;17.30;99.90;;;;;;5075166;28;20249;-70
2022/11/01 09:00:09;;;;;;;0.40;0.40;;;18.20;98.40;;;;;;5074563;28;20187;-70
2022/11/01 09:02:35;;;;;;;0.30;0.30;;;18.80;96.40;;;;;;5075026;28;20165;-69
2022/11/01 09:05:05;;;;;;;0.40;0.40;;;18.90;95.80;;;;;;5074923;28;20403;-72
2022/11/01 09:07:33;;;;;;;0.73;0.57;;;18.60;95.00;;;;;;5074803;28;20463;-70
2022/11/01 09:09:59;;;;;;;0.93;0.90;;;18.20;95.60;;;;;;5074517;28;20428;-70
2022/11/01 09:12:25;;;;;;;0.40;0.40;;;17.60;96.50;;;;;;5074495;28;20411;-68
2022/11/01 09:14:51;;;;;;;0.30;0.30;;;17.30;97.20;;;;;;5074595;28;20173;-72
2022/11/01 09:17:17;;;;;;;0.30;0.30;;;17.30;97.40;;;;;;5074435;28;20851;-71
2022/11/01 09:19:42;;;;;;;0.40;0.40;;;17.10;99.90;;;;;;5074264;28;20534;-71
2022/11/01 09:22:09;;;;;;;0.40;0.40;;;17.30;97.60;;;;;;5074576;28;20735;-71
2022/11/01 09:24:34;;;;;;;1.50;1.50;;;17.20;97.00;;;;;;5074945;28;20560;-71
2022/11/01 09:27:00;;;;;;;0.33;0.33;;;17.10;97.10;;;;;;5072818;28;20542;-71
2022/11/01 09:29:26;;;;;;;0.40;0.40;;;17.10;99.90;;;;;;5074443;28;20207;-69
2022/11/01 09:31:53;;;;;;;0.60;0.60;;;17.20;97.70;;;;;;5074390;28;20410;-71
2022/11/01 09:34:19;;;;;;;0.30;0.30;;;17.30;97.10;;;;;;5074559;28;20396;-69
2022/11/01 09:36:46;;;;;;;0.40;0.40;;;17.40;97.80;;;;;;5074169;28;20952;-72
2022/11/01 09:39:15;;;;;;;0.50;0.40;;;17.60;96.90;;;;;;5074224;28;20404;-69
2022/11/01 09:41:50;;;;;;;0.40;0.40;;;17.70;96.40;;;;;;5073906;28;20431;-71
2022/11/01 09:44:21;;;;;;;0.67;0.67;;;17.90;97.20;;;;;;5074155;28;20392;-70
2022/11/01 09:46:58;;;;;;;0.77;0.60;;;18.00;96.60;;;;;;5074510;28;20487;-70
2022/11/01 09:49:31;;;;;;;0.30;0.30;;;18.10;96.70;;;;;;5074033;28;20413;-70
2022/11/01 09:51:57;;;;;;;0.40;0.40;;;18.00;96.00;;;;;;5074379;28;20408;-71
2022/11/01 09:54:24;;;;;;;0.60;0.60;;;17.70;96.10;;;;;;5073997;28;20454;-69
2022/11/01 09:57:16;;;;;;;0.40;0.40;;;17.50;96.30;;;;;;5073914;28;20477;-72
2022/11/01 10:00:00;;;;;;;3.60;1.43;;;17.20;99.90;;;;;;5073276;28;20404;-70
2022/11/01 10:02:53;;;;;;;0.50;0.50;;;17.40;97.30;;;;;;5073440;28;20410;-69
2022/11/01 10:05:25;;;;;;;0.30;0.30;;;17.30;97.40;;;;;;5073753;28;20420;-72
2022/11/01 10:08:22;;;;;;;0.73;0.60;;;17.20;97.30;;;;;;5074055;28;20904;-70
2022/11/01 10:11:05;;;;;;;0.93;0.60;;;16.80;97.50;;;;;;5073217;28;20420;-71
2022/11/01 10:13:34;;;;;;;0.90;0.90;;;16.40;97.50;;;;;;5073554;28;20403;-69
2022/11/01 10:16:09;;;;;;;0.50;0.47;;;16.30;98.10;;;;;;5072606;28;20968;-70
2022/11/01 10:18:50;;;;;;;0.30;0.30;;;16.60;98.50;;;;;;5073652;28;20912;-71
2022/11/01 10:21:18;;;;;;;0.40;0.40;;;17.00;98.50;;;;;;5073609;28;20412;-70
2022/11/01 10:23:49;;;;;;;0.60;0.60;;;17.40;98.20;;;;;;5073434;28;20410;-69
2022/11/01 10:26:24;;;;;;;0.50;0.50;;;17.70;96.90;;;;;;5073246;28;20502;-72
2022/11/01 10:29:01;;;;;;;0.50;0.50;;;17.70;96.70;;;;;;5073387;28;20464;-72
2022/11/01 10:31:28;;;;;;;0.30;0.30;;;17.80;96.20;;;;;;5073291;28;20423;-72
2022/11/01 10:33:57;;;;;;;0.40;0.40;;;17.70;96.30;;;;;;5073534;28;20404;-69
2022/11/01 10:36:32;;;;;;;0.53;0.53;;;17.50;96.70;;;;;;5073248;28;20479;-71
2022/11/01 10:39:14;;;;;;;1.30;1.00;;;17.40;96.70;;;;;;5073305;28;20490;-72
2022/11/01 10:41:49;;;;;;;0.50;0.50;;;17.30;97.00;;;;;;5073254;28;20426;-68
2022/11/01 10:44:25;;;;;;;0.37;0.37;;;17.10;97.20;;;;;;5073702;28;20388;-72
2022/11/01 10:46:52;;;;;;;0.53;0.53;;;17.00;97.20;;;;;;5073247;28;20406;-70
2022/11/01 10:49:50;;;;;;;0.40;0.40;;;16.90;97.60;;;;;;5073061;28;20428;-70
2022/11/01 10:52:20;;;;;;;1.27;1.20;;;16.80;97.30;;;;;;5053509;28;20439;-69
2022/11/01 10:54:49;;;;;;;0.63;0.57;;;16.80;97.50;;;;;;5073092;28;20403;-72
2022/11/01 10:57:39;;;;;;;0.63;0.63;;;16.70;97.70;;;;;;5073045;28;20470;-72
2022/11/01 11:00:13;;;;;;;1.07;1.07;;;16.70;97.70;;;;;;5072897;28;20434;-70
2022/11/01 11:02:46;;;;;;;0.50;0.50;;;16.70;98.10;;;;;;5072987;28;20380;-70
2022/11/01 11:05:13;;;;;;;0.30;0.30;;;16.80;97.50;;;;;;5073032;28;20396;-71
2022/11/01 11:07:40;;;;;;;0.60;0.40;;;16.80;97.40;;;;;;5072996;28;20400;-70
2022/11/01 11:10:17;;;;;;;0.50;0.50;;;16.80;97.90;;;;;;5072889;28;20424;-70
2022/11/01 11:12:45;;;;;;;1.47;0.87;;;16.80;97.70;;;;;;5073041;28;20952;-72
2022/11/01 11:15:18;;;;;;;0.30;0.30;;;16.70;97.60;;;;;;5073778;28;20459;-68
2022/11/01 11:17:45;;;;;;;1.13;0.40;;;16.70;97.50;;;;;;5076854;28;20498;-71
2022/11/01 11:20:12;;;;;;;0.40;0.40;;;16.60;97.40;;;;;;5076388;28;20445;-72
2022/11/01 11:22:41;;;;;;;0.40;0.40;;;16.70;97.90;;;;;;5075278;28;20404;-72
2022/11/01 11:25:20;;;;;;;0.90;0.50;;;16.90;97.20;;;;;;5076355;28;20402;-69
2022/11/01 11:27:48;;;;;;;0.67;0.40;;;16.80;97.00;;;;;;5076591;28;20456;-72
2022/11/01 11:30:28;;;;;;;0.40;0.40;;;16.80;97.20;;;;;;5076299;28;20418;-71
2022/11/01 11:32:57;;;;;;;1.10;1.10;;;17.00;97.40;;;;;;5076401;28;20396;-71
2022/11/01 11:35:23;;;;;;;0.30;0.30;;;17.00;96.60;;;;;;5076373;28;20395;-70
2022/11/01 11:38:02;;;;;;;0.43;0.43;;;16.90;96.70;;;;;;5076142;28;20399;-73
2022/11/01 11:40:41;;;;;;;0.50;0.50;;;16.80;96.70;;;;;;5076010;28;20423;-70
2022/11/01 11:43:23;;;;;;;0.40;0.40;;;16.80;97.20;;;;;;5076175;28;20400;-70
2022/11/01 11:46:07;;;;;;;0.50;0.47;;;16.80;96.90;;;;;;5076174;28;20478;-72
2022/11/01 11:48:44;;;;;;;0.43;0.40;;;16.70;97.10;;;;;;5076219;28;20423;-71
2022/11/01 11:51:10;;;;;;;0.40;0.40;;;16.70;97.20;;;;;;5075940;28;20423;-71
2022/11/01 11:53:35;;;;;;;0.40;0.40;;;16.60;97.20;;;;;;5076208;28;20403;-71
2022/11/01 11:56:05;;;;;;;0.40;0.40;;;16.60;97.10;;;;;;5076248;28;20223;-70
2022/11/01 11:58:47;;;;;;;0.40;0.40;;;16.60;96.80;;;;;;5076135;28;20187;-70
2022/11/01 12:01:22;;;;;;;0.50;0.50;;;16.70;96.90;;;;;;5075811;28;20424;-71
2022/11/01 12:03:52;;;;;;;0.50;0.50;;;16.80;97.00;;;;;;5076196;28;20807;-70
2022/11/01 12:06:23;;;;;;;0.50;0.50;;;17.00;96.50;;;;;;5075828;28;20407;-69
2022/11/01 12:08:52;;;;;;;0.50;0.50;;;17.10;95.80;;;;;;5075731;28;20407;-70
2022/11/01 12:11:18;;;;;;;0.30;0.30;;;17.10;96.20;;;;;;5075791;28;20431;-71
2022/11/01 12:14:18;;;;;;;0.70;0.53;;;17.10;95.70;;;;;;5075738;28;20809;-71
2022/11/01 12:16:44;;;;;;;0.50;0.50;;;17.10;95.90;;;;;;5075641;28;20451;-71
2022/11/01 12:19:25;;;;;;;0.60;0.60;;;17.20;95.60;;;;;;5075357;28;20404;-70
2022/11/01 12:21:50;;;;;;;0.30;0.30;;;17.40;95.40;;;;;;5075354;28;20423;-69
2022/11/01 12:24:41;;;;;;;1.27;0.60;;;17.50;95.20;;;;;;5075569;28;20482;-72
2022/11/01 12:27:13;;;;;;;0.40;0.40;;;17.50;95.30;;;;;;5075082;28;20455;-70
2022/11/01 12:29:58;;;;;;;1.90;0.60;;;17.60;99.90;;;;;;5075262;28;20481;-72
2022/11/01 12:32:28;;;;;;;0.40;0.40;;;17.50;95.60;;;;;;5075231;28;20933;-70
2022/11/01 12:34:58;;;;;;;0.30;0.30;;;17.60;95.50;;;;;;5075482;28;20754;-71
2022/11/01 12:37:46;;;;;;;2.40;0.77;;;17.50;95.70;;;;;;5075149;28;20597;-70
2022/11/01 12:40:27;;;;;;;0.40;0.40;;;17.30;95.70;;;;;;5074993;28;20499;-71
2022/11/01 12:42:57;;;;;;;0.40;0.40;;;17.10;95.80;;;;;;5075045;28;20388;-71
2022/11/01 12:45:49;;;;;;;0.30;0.30;;;17.10;96.00;;;;;;5074951;28;20404;-71
2022/11/01 12:48:46;;;;;;;0.50;0.50;;;17.10;95.90;;;;;;5075152;28;20396;-70
2022/11/01 12:51:36;;;;;;;0.67;0.60;;;17.10;96.10;;;;;;5073685;28;20431;-70
2022/11/01 12:54:11;;;;;;;0.47;0.40;;;17.10;95.80;;;;;;5075067;28;20404;-72
2022/11/01 12:56:36;;;;;;;0.50;0.50;;;17.10;95.60;;;;;;5074769;28;20522;-72
2022/11/01 12:59:03;;;;;;;0.30;0.30;;;17.10;95.40;;;;;;5074761;28;20944;-72
2022/11/01 13:01:39;;;;;;;0.53;0.53;;;17.10;95.70;;;;;;5074604;28;20204;-69
2022/11/01 13:04:23;;;;;;;2.83;0.70;;;17.20;95.60;;;;;;5074798;28;20410;-72
2022/11/01 13:07:25;;;;;;;0.73;0.53;;;17.20;95.50;;;;;;5074695;28;20410;-71